sensor_id;sensor_type;location;lat;lon;timestamp;P1;durP1;ratioP1;P2;durP2;ratioP2
70800;SDS011;59616;52.170;5.386;2022-11-14T00:00:41;22.30;;;9.40;;
70800;SDS011;59616;52.170;5.386;2022-11-14T00:03:27;24.13;;;10.32;;
70800;SDS011;59616;52.170;5.386;2022-11-14T00:06:13;24.33;;;9.50;;
70800;SDS011;59616;52.170;5.386;2022-11-14T00:08:59;23.77;;;10.45;;
70800;SDS011;59616;52.170;5.386;2022-11-14T00:11:44;22.95;;;9.63;;
70800;SDS011;59616;52.170;5.386;2022-11-14T00:14:30;22.20;;;9.70;;
70800;SDS011;59616;52.170;5.386;2022-11-14T00:17:16;24.60;;;10.38;;
70800;SDS011;59616;52.170;5.386;2022-11-14T00:22:48;23.63;;;9.95;;
70800;SDS011;59616;52.170;5.386;2022-11-14T00:25:33;26.92;;;10.27;;
70800;SDS011;59616;52.170;5.386;2022-11-14T00:28:19;25.30;;;10.60;;
70800;SDS011;59616;52.170;5.386;2022-11-14T00:31:05;29.20;;;11.88;;
70800;SDS011;59616;52.170;5.386;2022-11-14T00:33:52;24.83;;;10.35;;
70800;SDS011;59616;52.170;5.386;2022-11-14T00:36:37;24.02;;;9.82;;
70800;SDS011;59616;52.170;5.386;2022-11-14T00:39:23;30.90;;;11.20;;
70800;SDS011;59616;52.170;5.386;2022-11-14T00:42:09;34.17;;;12.45;;
70800;SDS011;59616;52.170;5.386;2022-11-14T00:44:54;31.80;;;12.07;;
70800;SDS011;59616;52.170;5.386;2022-11-14T00:47:40;29.70;;;11.98;;
70800;SDS011;59616;52.170;5.386;2022-11-14T00:50:26;30.50;;;11.85;;
70800;SDS011;59616;52.170;5.386;2022-11-14T00:53:12;32.20;;;12.68;;
70800;SDS011;59616;52.170;5.386;2022-11-14T00:55:58;31.35;;;12.25;;
70800;SDS011;59616;52.170;5.386;2022-11-14T00:58:43;30.38;;;11.88;;
70800;SDS011;59616;52.170;5.386;2022-11-14T01:01:29;28.85;;;11.98;;
70800;SDS011;59616;52.170;5.386;2022-11-14T01:04:15;34.35;;;12.77;;
70800;SDS011;59616;52.170;5.386;2022-11-14T01:07:01;31.45;;;13.02;;
70800;SDS011;59616;52.170;5.386;2022-11-14T01:09:47;31.13;;;12.75;;
70800;SDS011;59616;52.170;5.386;2022-11-14T01:12:33;33.28;;;12.90;;
70800;SDS011;59616;52.170;5.386;2022-11-14T01:15:18;34.33;;;13.20;;
70800;SDS011;59616;52.170;5.386;2022-11-14T01:18:04;35.55;;;13.52;;
70800;SDS011;59616;52.170;5.386;2022-11-14T01:20:50;35.80;;;13.55;;
70800;SDS011;59616;52.170;5.386;2022-11-14T01:23:36;38.13;;;14.88;;
70800;SDS011;59616;52.170;5.386;2022-11-14T01:26:22;36.28;;;13.80;;
70800;SDS011;59616;52.170;5.386;2022-11-14T01:29:07;37.10;;;13.48;;
70800;SDS011;59616;52.170;5.386;2022-11-14T01:31:53;36.55;;;13.93;;
70800;SDS011;59616;52.170;5.386;2022-11-14T01:34:39;37.40;;;15.13;;
70800;SDS011;59616;52.170;5.386;2022-11-14T01:37:25;35.80;;;13.55;;
70800;SDS011;59616;52.170;5.386;2022-11-14T01:40:11;39.90;;;14.90;;
70800;SDS011;59616;52.170;5.386;2022-11-14T01:46:16;39.58;;;14.55;;
70800;SDS011;59616;52.170;5.386;2022-11-14T01:49:05;42.83;;;16.05;;
70800;SDS011;59616;52.170;5.386;2022-11-14T01:51:58;39.30;;;14.65;;
70800;SDS011;59616;52.170;5.386;2022-11-14T01:54:50;41.25;;;15.23;;
70800;SDS011;59616;52.170;5.386;2022-11-14T01:57:41;37.35;;;14.50;;
70800;SDS011;59616;52.170;5.386;2022-11-14T02:00:28;39.78;;;15.27;;
70800;SDS011;59616;52.170;5.386;2022-11-14T02:03:14;39.30;;;14.55;;
70800;SDS011;59616;52.170;5.386;2022-11-14T02:06:00;38.45;;;15.55;;
70800;SDS011;59616;52.170;5.386;2022-11-14T02:08:47;39.75;;;14.88;;
70800;SDS011;59616;52.170;5.386;2022-11-14T02:11:35;39.50;;;14.13;;
70800;SDS011;59616;52.170;5.386;2022-11-14T02:14:22;37.30;;;14.45;;
70800;SDS011;59616;52.170;5.386;2022-11-14T02:17:08;37.55;;;14.15;;
70800;SDS011;59616;52.170;5.386;2022-11-14T02:20:15;38.65;;;15.23;;
70800;SDS011;59616;52.170;5.386;2022-11-14T02:23:02;40.30;;;15.23;;
70800;SDS011;59616;52.170;5.386;2022-11-14T02:25:48;40.65;;;14.80;;
70800;SDS011;59616;52.170;5.386;2022-11-14T02:28:34;44.75;;;15.40;;
70800;SDS011;59616;52.170;5.386;2022-11-14T02:31:19;44.08;;;15.88;;
70800;SDS011;59616;52.170;5.386;2022-11-14T02:34:05;45.67;;;16.60;;
70800;SDS011;59616;52.170;5.386;2022-11-14T02:36:51;42.78;;;14.98;;
70800;SDS011;59616;52.170;5.386;2022-11-14T02:42:22;39.28;;;13.25;;
70800;SDS011;59616;52.170;5.386;2022-11-14T02:45:08;38.38;;;14.40;;
70800;SDS011;59616;52.170;5.386;2022-11-14T02:47:55;41.10;;;14.50;;
70800;SDS011;59616;52.170;5.386;2022-11-14T02:50:40;41.17;;;15.43;;
70800;SDS011;59616;52.170;5.386;2022-11-14T02:53:26;40.65;;;13.90;;
70800;SDS011;59616;52.170;5.386;2022-11-14T02:56:12;37.65;;;14.07;;
70800;SDS011;59616;52.170;5.386;2022-11-14T02:58:58;38.50;;;14.80;;
70800;SDS011;59616;52.170;5.386;2022-11-14T03:01:44;43.95;;;15.02;;
70800;SDS011;59616;52.170;5.386;2022-11-14T03:04:30;39.30;;;15.27;;
70800;SDS011;59616;52.170;5.386;2022-11-14T03:07:15;40.70;;;14.60;;
70800;SDS011;59616;52.170;5.386;2022-11-14T03:10:01;37.60;;;15.52;;
70800;SDS011;59616;52.170;5.386;2022-11-14T03:12:51;38.83;;;14.88;;
70800;SDS011;59616;52.170;5.386;2022-11-14T03:15:37;39.53;;;14.45;;
70800;SDS011;59616;52.170;5.386;2022-11-14T03:18:23;50.10;;;15.57;;
70800;SDS011;59616;52.170;5.386;2022-11-14T03:21:10;43.83;;;16.35;;
70800;SDS011;59616;52.170;5.386;2022-11-14T03:23:55;42.10;;;15.07;;
70800;SDS011;59616;52.170;5.386;2022-11-14T03:26:41;40.78;;;14.93;;
70800;SDS011;59616;52.170;5.386;2022-11-14T03:29:27;41.20;;;15.02;;
70800;SDS011;59616;52.170;5.386;2022-11-14T03:32:13;43.03;;;14.73;;
70800;SDS011;59616;52.170;5.386;2022-11-14T03:34:59;43.42;;;15.90;;
70800;SDS011;59616;52.170;5.386;2022-11-14T03:37:45;40.83;;;15.43;;
70800;SDS011;59616;52.170;5.386;2022-11-14T03:40:30;45.17;;;14.63;;
70800;SDS011;59616;52.170;5.386;2022-11-14T03:43:17;41.67;;;14.93;;
70800;SDS011;59616;52.170;5.386;2022-11-14T03:46:03;45.95;;;16.65;;
70800;SDS011;59616;52.170;5.386;2022-11-14T03:48:49;38.63;;;13.98;;
70800;SDS011;59616;52.170;5.386;2022-11-14T03:51:35;39.00;;;14.75;;
70800;SDS011;59616;52.170;5.386;2022-11-14T03:54:20;39.42;;;14.18;;
70800;SDS011;59616;52.170;5.386;2022-11-14T03:57:06;40.47;;;14.80;;
70800;SDS011;59616;52.170;5.386;2022-11-14T03:59:52;49.03;;;15.35;;
70800;SDS011;59616;52.170;5.386;2022-11-14T04:05:23;43.72;;;14.52;;
70800;SDS011;59616;52.170;5.386;2022-11-14T04:08:09;37.38;;;14.30;;
70800;SDS011;59616;52.170;5.386;2022-11-14T04:10:55;40.30;;;13.95;;
70800;SDS011;59616;52.170;5.386;2022-11-14T04:13:41;42.85;;;15.45;;
70800;SDS011;59616;52.170;5.386;2022-11-14T04:16:27;44.38;;;16.30;;
70800;SDS011;59616;52.170;5.386;2022-11-14T04:19:12;41.97;;;14.43;;
70800;SDS011;59616;52.170;5.386;2022-11-14T04:21:58;42.97;;;15.10;;
70800;SDS011;59616;52.170;5.386;2022-11-14T04:24:44;45.50;;;13.95;;
70800;SDS011;59616;52.170;5.386;2022-11-14T04:27:30;40.80;;;14.50;;
70800;SDS011;59616;52.170;5.386;2022-11-14T04:30:16;40.78;;;14.90;;
70800;SDS011;59616;52.170;5.386;2022-11-14T04:33:02;40.97;;;14.85;;
70800;SDS011;59616;52.170;5.386;2022-11-14T04:35:47;45.10;;;14.73;;
70800;SDS011;59616;52.170;5.386;2022-11-14T04:38:33;45.05;;;14.23;;
70800;SDS011;59616;52.170;5.386;2022-11-14T04:41:19;39.22;;;15.88;;
70800;SDS011;59616;52.170;5.386;2022-11-14T04:44:05;43.83;;;16.08;;
70800;SDS011;59616;52.170;5.386;2022-11-14T04:46:51;42.03;;;14.88;;
70800;SDS011;59616;52.170;5.386;2022-11-14T04:49:37;38.58;;;13.73;;
70800;SDS011;59616;52.170;5.386;2022-11-14T04:52:22;39.65;;;13.63;;
70800;SDS011;59616;52.170;5.386;2022-11-14T04:55:08;45.13;;;14.25;;
70800;SDS011;59616;52.170;5.386;2022-11-14T04:57:55;38.72;;;13.38;;
70800;SDS011;59616;52.170;5.386;2022-11-14T05:00:41;39.00;;;13.40;;
70800;SDS011;59616;52.170;5.386;2022-11-14T05:03:26;38.78;;;13.48;;
70800;SDS011;59616;52.170;5.386;2022-11-14T05:06:12;40.42;;;13.35;;
70800;SDS011;59616;52.170;5.386;2022-11-14T05:08:58;44.42;;;13.85;;
70800;SDS011;59616;52.170;5.386;2022-11-14T05:11:44;42.28;;;13.82;;
70800;SDS011;59616;52.170;5.386;2022-11-14T05:17:16;38.88;;;11.93;;
70800;SDS011;59616;52.170;5.386;2022-11-14T05:20:02;37.45;;;13.40;;
70800;SDS011;59616;52.170;5.386;2022-11-14T05:22:51;36.25;;;14.13;;
70800;SDS011;59616;52.170;5.386;2022-11-14T05:25:36;37.33;;;13.40;;
70800;SDS011;59616;52.170;5.386;2022-11-14T05:28:22;40.33;;;13.27;;
70800;SDS011;59616;52.170;5.386;2022-11-14T05:31:12;41.22;;;12.98;;
70800;SDS011;59616;52.170;5.386;2022-11-14T05:33:58;39.50;;;13.38;;
70800;SDS011;59616;52.170;5.386;2022-11-14T05:36:44;37.50;;;13.07;;
70800;SDS011;59616;52.170;5.386;2022-11-14T05:39:30;40.88;;;14.02;;
70800;SDS011;59616;52.170;5.386;2022-11-14T05:42:16;39.80;;;13.65;;
70800;SDS011;59616;52.170;5.386;2022-11-14T05:45:01;41.22;;;13.27;;
70800;SDS011;59616;52.170;5.386;2022-11-14T05:47:47;40.30;;;12.68;;
70800;SDS011;59616;52.170;5.386;2022-11-14T05:50:33;42.83;;;13.73;;
70800;SDS011;59616;52.170;5.386;2022-11-14T05:53:19;38.08;;;12.38;;
70800;SDS011;59616;52.170;5.386;2022-11-14T05:56:13;36.65;;;12.65;;
70800;SDS011;59616;52.170;5.386;2022-11-14T05:58:59;34.10;;;11.93;;
70800;SDS011;59616;52.170;5.386;2022-11-14T06:01:45;36.50;;;13.02;;
70800;SDS011;59616;52.170;5.386;2022-11-14T06:04:31;37.10;;;13.40;;
70800;SDS011;59616;52.170;5.386;2022-11-14T06:07:16;41.00;;;13.68;;
70800;SDS011;59616;52.170;5.386;2022-11-14T06:10:04;37.08;;;12.27;;
70800;SDS011;59616;52.170;5.386;2022-11-14T06:12:50;39.90;;;13.15;;
70800;SDS011;59616;52.170;5.386;2022-11-14T06:15:36;35.50;;;12.75;;
70800;SDS011;59616;52.170;5.386;2022-11-14T06:18:21;36.15;;;12.45;;
70800;SDS011;59616;52.170;5.386;2022-11-14T06:21:14;41.80;;;13.35;;
70800;SDS011;59616;52.170;5.386;2022-11-14T06:24:01;33.53;;;11.52;;
70800;SDS011;59616;52.170;5.386;2022-11-14T06:26:46;39.10;;;11.35;;
70800;SDS011;59616;52.170;5.386;2022-11-14T06:29:32;38.53;;;12.23;;
70800;SDS011;59616;52.170;5.386;2022-11-14T06:32:19;32.90;;;11.90;;
70800;SDS011;59616;52.170;5.386;2022-11-14T06:35:05;41.42;;;13.23;;
70800;SDS011;59616;52.170;5.386;2022-11-14T06:37:52;31.05;;;11.48;;
70800;SDS011;59616;52.170;5.386;2022-11-14T06:40:38;37.60;;;11.48;;
70800;SDS011;59616;52.170;5.386;2022-11-14T06:43:24;30.83;;;11.20;;
70800;SDS011;59616;52.170;5.386;2022-11-14T06:46:11;36.70;;;11.80;;
70800;SDS011;59616;52.170;5.386;2022-11-14T06:48:56;31.08;;;11.38;;
70800;SDS011;59616;52.170;5.386;2022-11-14T06:51:42;39.10;;;13.23;;
70800;SDS011;59616;52.170;5.386;2022-11-14T06:54:28;32.90;;;10.82;;
70800;SDS011;59616;52.170;5.386;2022-11-14T06:57:13;37.03;;;11.73;;
70800;SDS011;59616;52.170;5.386;2022-11-14T06:59:59;37.53;;;12.50;;
70800;SDS011;59616;52.170;5.386;2022-11-14T07:02:45;32.50;;;11.32;;
70800;SDS011;59616;52.170;5.386;2022-11-14T07:05:31;34.42;;;11.52;;
70800;SDS011;59616;52.170;5.386;2022-11-14T07:08:17;36.75;;;11.38;;
70800;SDS011;59616;52.170;5.386;2022-11-14T07:11:05;32.88;;;11.02;;
70800;SDS011;59616;52.170;5.386;2022-11-14T07:13:52;31.25;;;11.10;;
70800;SDS011;59616;52.170;5.386;2022-11-14T07:16:38;33.95;;;12.18;;
70800;SDS011;59616;52.170;5.386;2022-11-14T07:19:24;29.63;;;10.85;;
70800;SDS011;59616;52.170;5.386;2022-11-14T07:22:10;31.83;;;10.95;;
70800;SDS011;59616;52.170;5.386;2022-11-14T07:24:55;33.50;;;11.88;;
70800;SDS011;59616;52.170;5.386;2022-11-14T07:27:41;37.30;;;11.63;;
70800;SDS011;59616;52.170;5.386;2022-11-14T07:30:27;40.17;;;12.60;;
70800;SDS011;59616;52.170;5.386;2022-11-14T07:33:13;32.80;;;10.98;;
70800;SDS011;59616;52.170;5.386;2022-11-14T07:35:59;30.73;;;11.93;;
70800;SDS011;59616;52.170;5.386;2022-11-14T07:38:44;41.75;;;12.23;;
70800;SDS011;59616;52.170;5.386;2022-11-14T07:41:30;36.15;;;12.00;;
70800;SDS011;59616;52.170;5.386;2022-11-14T07:44:16;34.03;;;10.90;;
70800;SDS011;59616;52.170;5.386;2022-11-14T07:47:02;35.58;;;11.63;;
70800;SDS011;59616;52.170;5.386;2022-11-14T07:49:48;31.70;;;11.57;;
70800;SDS011;59616;52.170;5.386;2022-11-14T07:52:33;38.88;;;11.43;;
70800;SDS011;59616;52.170;5.386;2022-11-14T07:55:19;37.33;;;11.75;;
70800;SDS011;59616;52.170;5.386;2022-11-14T07:58:06;37.05;;;12.10;;
70800;SDS011;59616;52.170;5.386;2022-11-14T08:00:51;33.97;;;11.80;;
70800;SDS011;59616;52.170;5.386;2022-11-14T08:03:38;33.60;;;12.98;;
70800;SDS011;59616;52.170;5.386;2022-11-14T08:06:29;34.75;;;12.27;;
70800;SDS011;59616;52.170;5.386;2022-11-14T08:09:15;27.25;;;10.02;;
70800;SDS011;59616;52.170;5.386;2022-11-14T08:12:01;37.78;;;12.75;;
70800;SDS011;59616;52.170;5.386;2022-11-14T08:14:47;35.22;;;11.45;;
70800;SDS011;59616;52.170;5.386;2022-11-14T08:17:33;33.83;;;10.85;;
70800;SDS011;59616;52.170;5.386;2022-11-14T08:20:18;30.20;;;10.25;;
70800;SDS011;59616;52.170;5.386;2022-11-14T08:23:04;37.35;;;11.88;;
70800;SDS011;59616;52.170;5.386;2022-11-14T08:25:50;30.35;;;11.68;;
70800;SDS011;59616;52.170;5.386;2022-11-14T08:28:36;37.08;;;11.70;;
70800;SDS011;59616;52.170;5.386;2022-11-14T08:31:22;34.75;;;12.15;;
70800;SDS011;59616;52.170;5.386;2022-11-14T08:34:09;30.40;;;11.38;;
70800;SDS011;59616;52.170;5.386;2022-11-14T08:36:55;33.33;;;10.98;;
70800;SDS011;59616;52.170;5.386;2022-11-14T08:39:41;36.35;;;10.88;;
70800;SDS011;59616;52.170;5.386;2022-11-14T08:42:27;32.67;;;11.82;;
70800;SDS011;59616;52.170;5.386;2022-11-14T08:45:13;35.05;;;10.48;;
70800;SDS011;59616;52.170;5.386;2022-11-14T08:47:58;33.30;;;11.23;;
70800;SDS011;59616;52.170;5.386;2022-11-14T08:50:44;32.80;;;11.30;;
70800;SDS011;59616;52.170;5.386;2022-11-14T08:53:30;31.67;;;10.48;;
70800;SDS011;59616;52.170;5.386;2022-11-14T08:56:16;32.33;;;11.25;;
70800;SDS011;59616;52.170;5.386;2022-11-14T08:59:02;34.03;;;10.68;;
70800;SDS011;59616;52.170;5.386;2022-11-14T09:01:48;32.38;;;11.15;;
70800;SDS011;59616;52.170;5.386;2022-11-14T09:04:34;30.90;;;10.90;;
70800;SDS011;59616;52.170;5.386;2022-11-14T09:07:20;33.35;;;10.68;;
70800;SDS011;59616;52.170;5.386;2022-11-14T09:10:06;34.47;;;11.80;;
70800;SDS011;59616;52.170;5.386;2022-11-14T09:12:55;28.35;;;10.75;;
70800;SDS011;59616;52.170;5.386;2022-11-14T09:15:41;30.35;;;10.00;;
70800;SDS011;59616;52.170;5.386;2022-11-14T09:18:28;29.38;;;9.80;;
70800;SDS011;59616;52.170;5.386;2022-11-14T09:21:14;32.67;;;10.57;;
70800;SDS011;59616;52.170;5.386;2022-11-14T09:29:40;31.13;;;9.93;;
70800;SDS011;59616;52.170;5.386;2022-11-14T09:32:26;26.75;;;9.48;;
70800;SDS011;59616;52.170;5.386;2022-11-14T09:35:12;27.80;;;10.10;;
70800;SDS011;59616;52.170;5.386;2022-11-14T09:38:01;29.25;;;10.63;;
70800;SDS011;59616;52.170;5.386;2022-11-14T09:47:01;29.42;;;10.68;;
70800;SDS011;59616;52.170;5.386;2022-11-14T09:49:48;30.60;;;10.00;;
70800;SDS011;59616;52.170;5.386;2022-11-14T09:52:38;33.70;;;9.63;;
70800;SDS011;59616;52.170;5.386;2022-11-14T09:55:29;26.35;;;10.25;;
70800;SDS011;59616;52.170;5.386;2022-11-14T09:58:20;28.02;;;11.10;;
70800;SDS011;59616;52.170;5.386;2022-11-14T10:07:46;24.20;;;8.30;;
70800;SDS011;59616;52.170;5.386;2022-11-14T10:13:39;26.95;;;10.07;;
70800;SDS011;59616;52.170;5.386;2022-11-14T10:16:37;29.38;;;9.95;;
70800;SDS011;59616;52.170;5.386;2022-11-14T10:22:37;23.70;;;10.18;;
70800;SDS011;59616;52.170;5.386;2022-11-14T10:28:37;23.85;;;8.95;;
70800;SDS011;59616;52.170;5.386;2022-11-14T10:31:38;20.90;;;8.30;;
70800;SDS011;59616;52.170;5.386;2022-11-14T10:34:29;22.60;;;9.05;;
70800;SDS011;59616;52.170;5.386;2022-11-14T10:40:23;22.17;;;8.77;;
70800;SDS011;59616;52.170;5.386;2022-11-14T10:43:15;19.80;;;8.95;;
70800;SDS011;59616;52.170;5.386;2022-11-14T10:46:06;21.88;;;8.50;;
70800;SDS011;59616;52.170;5.386;2022-11-14T10:48:53;22.88;;;8.88;;
70800;SDS011;59616;52.170;5.386;2022-11-14T10:51:54;22.35;;;8.48;;
70800;SDS011;59616;52.170;5.386;2022-11-14T10:54:46;23.98;;;9.60;;
70800;SDS011;59616;52.170;5.386;2022-11-14T10:57:33;22.00;;;8.82;;
70800;SDS011;59616;52.170;5.386;2022-11-14T11:00:19;19.50;;;9.20;;
70800;SDS011;59616;52.170;5.386;2022-11-14T11:03:07;21.92;;;9.43;;
70800;SDS011;59616;52.170;5.386;2022-11-14T11:05:53;22.85;;;8.63;;
70800;SDS011;59616;52.170;5.386;2022-11-14T11:08:41;19.20;;;8.07;;
70800;SDS011;59616;52.170;5.386;2022-11-14T11:11:56;22.40;;;9.20;;
70800;SDS011;59616;52.170;5.386;2022-11-14T11:14:43;22.23;;;9.20;;
70800;SDS011;59616;52.170;5.386;2022-11-14T11:17:28;21.55;;;9.30;;
70800;SDS011;59616;52.170;5.386;2022-11-14T11:26:05;23.45;;;9.07;;
70800;SDS011;59616;52.170;5.386;2022-11-14T11:29:00;20.75;;;8.73;;
70800;SDS011;59616;52.170;5.386;2022-11-14T11:31:56;23.30;;;9.05;;
70800;SDS011;59616;52.170;5.386;2022-11-14T11:34:42;21.70;;;9.13;;
70800;SDS011;59616;52.170;5.386;2022-11-14T11:40:15;23.63;;;9.25;;
70800;SDS011;59616;52.170;5.386;2022-11-14T11:43:03;26.73;;;9.02;;
70800;SDS011;59616;52.170;5.386;2022-11-14T11:46:15;21.83;;;9.43;;
70800;SDS011;59616;52.170;5.386;2022-11-14T11:49:09;25.05;;;9.48;;
70800;SDS011;59616;52.170;5.386;2022-11-14T11:52:00;21.20;;;9.23;;
70800;SDS011;59616;52.170;5.386;2022-11-14T11:57:37;23.83;;;10.32;;
70800;SDS011;59616;52.170;5.386;2022-11-14T12:00:26;23.00;;;9.52;;
70800;SDS011;59616;52.170;5.386;2022-11-14T12:03:12;21.85;;;10.13;;
70800;SDS011;59616;52.170;5.386;2022-11-14T12:06:19;23.02;;;10.13;;
70800;SDS011;59616;52.170;5.386;2022-11-14T12:09:19;23.50;;;9.15;;
70800;SDS011;59616;52.170;5.386;2022-11-14T12:12:09;24.58;;;10.15;;
70800;SDS011;59616;52.170;5.386;2022-11-14T12:26:39;22.40;;;9.93;;
70800;SDS011;59616;52.170;5.386;2022-11-14T12:29:43;25.15;;;10.68;;
70800;SDS011;59616;52.170;5.386;2022-11-14T12:32:31;24.45;;;10.55;;
70800;SDS011;59616;52.170;5.386;2022-11-14T12:38:11;26.35;;;11.35;;
70800;SDS011;59616;52.170;5.386;2022-11-14T12:40:59;33.53;;;12.57;;
70800;SDS011;59616;52.170;5.386;2022-11-14T12:43:45;25.70;;;11.80;;
70800;SDS011;59616;52.170;5.386;2022-11-14T12:47:10;23.58;;;10.70;;
70800;SDS011;59616;52.170;5.386;2022-11-14T12:52:41;30.20;;;12.13;;
70800;SDS011;59616;52.170;5.386;2022-11-14T13:04:23;28.38;;;12.90;;
70800;SDS011;59616;52.170;5.386;2022-11-14T13:13:04;28.05;;;12.52;;
70800;SDS011;59616;52.170;5.386;2022-11-14T13:16:21;28.02;;;12.63;;
70800;SDS011;59616;52.170;5.386;2022-11-14T13:19:27;28.98;;;12.23;;
70800;SDS011;59616;52.170;5.386;2022-11-14T13:22:53;32.33;;;12.68;;
70800;SDS011;59616;52.170;5.386;2022-11-14T13:25:38;29.42;;;13.13;;
70800;SDS011;59616;52.170;5.386;2022-11-14T13:31:23;31.77;;;12.63;;
70800;SDS011;59616;52.170;5.386;2022-11-14T13:43:23;30.00;;;12.60;;
70800;SDS011;59616;52.170;5.386;2022-11-14T13:52:19;32.78;;;13.02;;
70800;SDS011;59616;52.170;5.386;2022-11-14T13:55:06;32.03;;;13.93;;
70800;SDS011;59616;52.170;5.386;2022-11-14T13:58:04;31.67;;;13.50;;
70800;SDS011;59616;52.170;5.386;2022-11-14T14:00:56;32.28;;;12.77;;
70800;SDS011;59616;52.170;5.386;2022-11-14T14:09:27;29.98;;;12.25;;
70800;SDS011;59616;52.170;5.386;2022-11-14T14:12:19;32.60;;;13.13;;
70800;SDS011;59616;52.170;5.386;2022-11-14T14:18:10;31.65;;;12.80;;
70800;SDS011;59616;52.170;5.386;2022-11-14T14:21:22;27.73;;;12.43;;
70800;SDS011;59616;52.170;5.386;2022-11-14T14:24:17;33.35;;;13.90;;
70800;SDS011;59616;52.170;5.386;2022-11-14T14:30:15;30.65;;;13.18;;
70800;SDS011;59616;52.170;5.386;2022-11-14T14:33:03;35.42;;;13.85;;
70800;SDS011;59616;52.170;5.386;2022-11-14T14:35:54;34.22;;;14.13;;
70800;SDS011;59616;52.170;5.386;2022-11-14T14:38:39;36.25;;;14.52;;
70800;SDS011;59616;52.170;5.386;2022-11-14T14:44:25;36.25;;;14.82;;
70800;SDS011;59616;52.170;5.386;2022-11-14T14:50:19;36.97;;;15.02;;
70800;SDS011;59616;52.170;5.386;2022-11-14T14:53:05;39.28;;;16.45;;
70800;SDS011;59616;52.170;5.386;2022-11-14T14:58:40;39.60;;;16.75;;
70800;SDS011;59616;52.170;5.386;2022-11-14T15:01:31;40.42;;;15.90;;
70800;SDS011;59616;52.170;5.386;2022-11-14T15:04:17;40.67;;;16.60;;
70800;SDS011;59616;52.170;5.386;2022-11-14T15:07:04;42.05;;;15.50;;
70800;SDS011;59616;52.170;5.386;2022-11-14T15:09:55;40.20;;;16.40;;
70800;SDS011;59616;52.170;5.386;2022-11-14T15:12:40;38.67;;;16.02;;
70800;SDS011;59616;52.170;5.386;2022-11-14T15:15:27;40.03;;;16.55;;
70800;SDS011;59616;52.170;5.386;2022-11-14T15:18:17;39.25;;;15.63;;
70800;SDS011;59616;52.170;5.386;2022-11-14T15:21:15;41.88;;;15.65;;
70800;SDS011;59616;52.170;5.386;2022-11-14T15:29:35;39.95;;;15.70;;
70800;SDS011;59616;52.170;5.386;2022-11-14T15:32:29;39.97;;;15.13;;
70800;SDS011;59616;52.170;5.386;2022-11-14T15:44:01;36.10;;;14.02;;
70800;SDS011;59616;52.170;5.386;2022-11-14T15:49:32;38.30;;;14.25;;
70800;SDS011;59616;52.170;5.386;2022-11-14T15:52:39;36.33;;;14.35;;
70800;SDS011;59616;52.170;5.386;2022-11-14T15:55:25;38.45;;;14.00;;
70800;SDS011;59616;52.170;5.386;2022-11-14T15:58:11;31.52;;;13.15;;
70800;SDS011;59616;52.170;5.386;2022-11-14T16:01:12;39.65;;;14.30;;
70800;SDS011;59616;52.170;5.386;2022-11-14T16:04:00;36.28;;;13.52;;
70800;SDS011;59616;52.170;5.386;2022-11-14T16:06:46;36.00;;;14.27;;
70800;SDS011;59616;52.170;5.386;2022-11-14T16:09:33;32.80;;;13.82;;
70800;SDS011;59616;52.170;5.386;2022-11-14T16:12:19;37.90;;;14.02;;
70800;SDS011;59616;52.170;5.386;2022-11-14T16:17:50;34.72;;;14.00;;
70800;SDS011;59616;52.170;5.386;2022-11-14T16:20:36;37.33;;;13.77;;
70800;SDS011;59616;52.170;5.386;2022-11-14T16:23:25;38.78;;;14.68;;
70800;SDS011;59616;52.170;5.386;2022-11-14T16:28:56;35.78;;;14.25;;
70800;SDS011;59616;52.170;5.386;2022-11-14T16:31:42;37.17;;;14.73;;
70800;SDS011;59616;52.170;5.386;2022-11-14T16:34:28;36.13;;;13.90;;
70800;SDS011;59616;52.170;5.386;2022-11-14T16:39:59;36.80;;;14.40;;
70800;SDS011;59616;52.170;5.386;2022-11-14T16:45:31;38.25;;;14.60;;
70800;SDS011;59616;52.170;5.386;2022-11-14T16:48:16;37.55;;;14.30;;
70800;SDS011;59616;52.170;5.386;2022-11-14T16:51:02;38.97;;;15.52;;
70800;SDS011;59616;52.170;5.386;2022-11-14T16:54:11;39.63;;;15.63;;
70800;SDS011;59616;52.170;5.386;2022-11-14T16:56:57;38.95;;;14.57;;
70800;SDS011;59616;52.170;5.386;2022-11-14T17:05:14;38.45;;;15.32;;
70800;SDS011;59616;52.170;5.386;2022-11-14T17:08:00;41.85;;;16.88;;
70800;SDS011;59616;52.170;5.386;2022-11-14T17:10:45;49.35;;;18.35;;
70800;SDS011;59616;52.170;5.386;2022-11-14T17:13:31;48.55;;;18.92;;
70800;SDS011;59616;52.170;5.386;2022-11-14T17:16:18;45.83;;;17.77;;
70800;SDS011;59616;52.170;5.386;2022-11-14T17:19:04;41.63;;;16.92;;
70800;SDS011;59616;52.170;5.386;2022-11-14T17:21:50;44.70;;;17.63;;
70800;SDS011;59616;52.170;5.386;2022-11-14T17:24:35;43.53;;;16.67;;
70800;SDS011;59616;52.170;5.386;2022-11-14T17:30:10;40.22;;;16.65;;
70800;SDS011;59616;52.170;5.386;2022-11-14T17:32:56;40.50;;;15.70;;
70800;SDS011;59616;52.170;5.386;2022-11-14T17:38:29;39.63;;;15.45;;
70800;SDS011;59616;52.170;5.386;2022-11-14T17:41:15;40.75;;;16.38;;
70800;SDS011;59616;52.170;5.386;2022-11-14T17:44:01;40.30;;;15.75;;
70800;SDS011;59616;52.170;5.386;2022-11-14T17:46:47;40.60;;;15.35;;
70800;SDS011;59616;52.170;5.386;2022-11-14T17:49:33;41.20;;;15.38;;
70800;SDS011;59616;52.170;5.386;2022-11-14T17:52:19;41.65;;;15.20;;
70800;SDS011;59616;52.170;5.386;2022-11-14T17:55:05;38.30;;;16.23;;
70800;SDS011;59616;52.170;5.386;2022-11-14T18:00:36;32.25;;;14.20;;
70800;SDS011;59616;52.170;5.386;2022-11-14T18:03:22;39.67;;;16.58;;
70800;SDS011;59616;52.170;5.386;2022-11-14T18:06:08;33.33;;;15.02;;
70800;SDS011;59616;52.170;5.386;2022-11-14T18:08:54;39.67;;;16.48;;
70800;SDS011;59616;52.170;5.386;2022-11-14T18:11:40;37.78;;;15.30;;
70800;SDS011;59616;52.170;5.386;2022-11-14T18:14:26;39.13;;;16.13;;
70800;SDS011;59616;52.170;5.386;2022-11-14T18:17:12;42.00;;;15.85;;
70800;SDS011;59616;52.170;5.386;2022-11-14T18:19:58;36.63;;;15.05;;
70800;SDS011;59616;52.170;5.386;2022-11-14T18:22:46;36.03;;;14.23;;
70800;SDS011;59616;52.170;5.386;2022-11-14T18:25:32;39.17;;;15.13;;
70800;SDS011;59616;52.170;5.386;2022-11-14T18:28:18;36.28;;;15.25;;
70800;SDS011;59616;52.170;5.386;2022-11-14T18:31:04;35.88;;;15.00;;
70800;SDS011;59616;52.170;5.386;2022-11-14T18:33:51;35.60;;;15.77;;
70800;SDS011;59616;52.170;5.386;2022-11-14T18:36:37;38.30;;;15.43;;
70800;SDS011;59616;52.170;5.386;2022-11-14T18:39:23;35.45;;;14.52;;
70800;SDS011;59616;52.170;5.386;2022-11-14T18:42:09;34.28;;;13.82;;
70800;SDS011;59616;52.170;5.386;2022-11-14T18:44:55;35.58;;;14.20;;
70800;SDS011;59616;52.170;5.386;2022-11-14T18:47:41;35.10;;;15.52;;
70800;SDS011;59616;52.170;5.386;2022-11-14T18:50:27;34.38;;;13.82;;
70800;SDS011;59616;52.170;5.386;2022-11-14T18:53:13;32.63;;;13.52;;
70800;SDS011;59616;52.170;5.386;2022-11-14T18:56:02;32.60;;;14.52;;
70800;SDS011;59616;52.170;5.386;2022-11-14T18:58:51;31.50;;;13.68;;
70800;SDS011;59616;52.170;5.386;2022-11-14T19:01:37;36.33;;;15.00;;
70800;SDS011;59616;52.170;5.386;2022-11-14T19:04:22;34.30;;;13.10;;
70800;SDS011;59616;52.170;5.386;2022-11-14T19:07:08;32.72;;;13.15;;
70800;SDS011;59616;52.170;5.386;2022-11-14T19:09:54;31.13;;;13.15;;
70800;SDS011;59616;52.170;5.386;2022-11-14T19:12:40;33.67;;;13.55;;